sensor_id;sensor_type;location;lat;lon;timestamp;P1;durP1;ratioP1;P2;durP2;ratioP2
37593;SDS011;23441;50.856;6.076;2022-11-11T00:00:29;3.50;;;1.63;;
37593;SDS011;23441;50.856;6.076;2022-11-11T00:02:55;6.50;;;1.70;;
37593;SDS011;23441;50.856;6.076;2022-11-11T00:05:22;6.35;;;1.80;;
37593;SDS011;23441;50.856;6.076;2022-11-11T00:07:48;2.55;;;1.23;;
37593;SDS011;23441;50.856;6.076;2022-11-11T00:10:16;5.57;;;1.55;;
37593;SDS011;23441;50.856;6.076;2022-11-11T00:12:42;5.78;;;1.50;;
37593;SDS011;23441;50.856;6.076;2022-11-11T00:15:08;4.25;;;1.52;;
37593;SDS011;23441;50.856;6.076;2022-11-11T00:17:34;7.03;;;2.22;;
37593;SDS011;23441;50.856;6.076;2022-11-11T00:20:18;4.22;;;1.52;;
37593;SDS011;23441;50.856;6.076;2022-11-11T00:23:03;3.38;;;1.60;;
37593;SDS011;23441;50.856;6.076;2022-11-11T00:25:51;4.75;;;1.50;;
37593;SDS011;23441;50.856;6.076;2022-11-11T00:28:17;6.35;;;1.42;;
37593;SDS011;23441;50.856;6.076;2022-11-11T00:30:43;5.70;;;1.70;;
37593;SDS011;23441;50.856;6.076;2022-11-11T00:33:09;5.38;;;1.75;;
37593;SDS011;23441;50.856;6.076;2022-11-11T00:35:35;5.30;;;1.80;;
37593;SDS011;23441;50.856;6.076;2022-11-11T00:38:19;9.77;;;1.40;;
37593;SDS011;23441;50.856;6.076;2022-11-11T00:41:04;6.60;;;2.08;;
37593;SDS011;23441;50.856;6.076;2022-11-11T00:43:30;6.15;;;2.38;;
37593;SDS011;23441;50.856;6.076;2022-11-11T00:45:56;7.22;;;2.50;;
37593;SDS011;23441;50.856;6.076;2022-11-11T00:48:42;2.95;;;1.90;;
37593;SDS011;23441;50.856;6.076;2022-11-11T00:51:27;4.97;;;2.10;;
37593;SDS011;23441;50.856;6.076;2022-11-11T00:53:53;5.82;;;2.03;;
37593;SDS011;23441;50.856;6.076;2022-11-11T00:56:19;6.13;;;1.90;;
37593;SDS011;23441;50.856;6.076;2022-11-11T00:58:47;4.00;;;2.08;;
37593;SDS011;23441;50.856;6.076;2022-11-11T01:01:13;8.02;;;2.08;;
37593;SDS011;23441;50.856;6.076;2022-11-11T01:03:39;7.15;;;1.98;;
37593;SDS011;23441;50.856;6.076;2022-11-11T01:06:05;3.45;;;1.98;;
37593;SDS011;23441;50.856;6.076;2022-11-11T01:08:31;6.40;;;2.13;;
37593;SDS011;23441;50.856;6.076;2022-11-11T01:10:57;4.97;;;2.28;;
37593;SDS011;23441;50.856;6.076;2022-11-11T01:13:24;5.22;;;1.70;;
37593;SDS011;23441;50.856;6.076;2022-11-11T01:15:52;4.22;;;1.80;;
37593;SDS011;23441;50.856;6.076;2022-11-11T01:18:23;3.63;;;1.88;;
37593;SDS011;23441;50.856;6.076;2022-11-11T01:23:35;4.88;;;1.73;;
37593;SDS011;23441;50.856;6.076;2022-11-11T01:26:03;4.57;;;1.60;;
37593;SDS011;23441;50.856;6.076;2022-11-11T01:28:31;7.45;;;1.70;;
37593;SDS011;23441;50.856;6.076;2022-11-11T01:31:01;5.30;;;2.13;;
37593;SDS011;23441;50.856;6.076;2022-11-11T01:33:29;6.55;;;1.95;;
37593;SDS011;23441;50.856;6.076;2022-11-11T01:36:00;3.72;;;1.80;;
37593;SDS011;23441;50.856;6.076;2022-11-11T01:38:27;5.53;;;1.95;;
37593;SDS011;23441;50.856;6.076;2022-11-11T01:40:53;5.50;;;1.80;;
37593;SDS011;23441;50.856;6.076;2022-11-11T01:43:21;4.35;;;1.58;;
37593;SDS011;23441;50.856;6.076;2022-11-11T01:45:58;6.00;;;2.15;;
37593;SDS011;23441;50.856;6.076;2022-11-11T01:48:30;3.10;;;1.90;;
37593;SDS011;23441;50.856;6.076;2022-11-11T01:51:19;3.25;;;1.55;;
37593;SDS011;23441;50.856;6.076;2022-11-11T01:53:51;5.05;;;1.83;;
37593;SDS011;23441;50.856;6.076;2022-11-11T01:56:22;5.15;;;2.15;;
37593;SDS011;23441;50.856;6.076;2022-11-11T01:58:49;5.13;;;1.80;;
37593;SDS011;23441;50.856;6.076;2022-11-11T02:01:19;5.78;;;2.00;;
37593;SDS011;23441;50.856;6.076;2022-11-11T02:03:45;7.65;;;2.20;;
37593;SDS011;23441;50.856;6.076;2022-11-11T02:06:31;4.05;;;1.98;;
37593;SDS011;23441;50.856;6.076;2022-11-11T02:08:58;3.25;;;1.75;;
37593;SDS011;23441;50.856;6.076;2022-11-11T02:11:26;5.63;;;2.50;;
37593;SDS011;23441;50.856;6.076;2022-11-11T02:14:11;4.32;;;1.67;;
37593;SDS011;23441;50.856;6.076;2022-11-11T02:16:56;6.50;;;2.22;;
37593;SDS011;23441;50.856;6.076;2022-11-11T02:19:24;8.02;;;1.90;;
37593;SDS011;23441;50.856;6.076;2022-11-11T02:22:00;4.57;;;2.17;;
37593;SDS011;23441;50.856;6.076;2022-11-11T02:24:26;4.45;;;1.80;;
37593;SDS011;23441;50.856;6.076;2022-11-11T02:26:54;4.32;;;1.92;;
37593;SDS011;23441;50.856;6.076;2022-11-11T02:29:22;3.47;;;1.80;;
37593;SDS011;23441;50.856;6.076;2022-11-11T02:31:48;5.15;;;2.03;;
37593;SDS011;23441;50.856;6.076;2022-11-11T02:34:14;5.07;;;2.15;;
37593;SDS011;23441;50.856;6.076;2022-11-11T02:36:40;4.03;;;1.98;;
37593;SDS011;23441;50.856;6.076;2022-11-11T02:39:07;5.03;;;1.92;;
37593;SDS011;23441;50.856;6.076;2022-11-11T02:41:33;3.13;;;1.70;;
37593;SDS011;23441;50.856;6.076;2022-11-11T02:44:18;2.97;;;1.80;;
37593;SDS011;23441;50.856;6.076;2022-11-11T02:46:43;4.70;;;1.70;;
37593;SDS011;23441;50.856;6.076;2022-11-11T02:49:09;3.53;;;1.85;;
37593;SDS011;23441;50.856;6.076;2022-11-11T02:51:35;3.58;;;1.90;;
37593;SDS011;23441;50.856;6.076;2022-11-11T02:54:01;1.75;;;1.65;;
37593;SDS011;23441;50.856;6.076;2022-11-11T02:56:27;4.43;;;1.88;;
37593;SDS011;23441;50.856;6.076;2022-11-11T02:59:11;2.35;;;1.70;;
37593;SDS011;23441;50.856;6.076;2022-11-11T03:01:38;5.55;;;1.77;;
37593;SDS011;23441;50.856;6.076;2022-11-11T03:04:04;5.60;;;1.40;;
37593;SDS011;23441;50.856;6.076;2022-11-11T03:06:30;4.88;;;1.50;;
37593;SDS011;23441;50.856;6.076;2022-11-11T03:08:56;4.25;;;1.60;;
37593;SDS011;23441;50.856;6.076;2022-11-11T03:11:21;3.85;;;1.80;;
37593;SDS011;23441;50.856;6.076;2022-11-11T03:13:56;3.95;;;1.40;;
37593;SDS011;23441;50.856;6.076;2022-11-11T03:16:23;3.05;;;1.48;;
37593;SDS011;23441;50.856;6.076;2022-11-11T03:19:08;5.90;;;1.67;;
37593;SDS011;23441;50.856;6.076;2022-11-11T03:21:34;2.25;;;1.50;;
37593;SDS011;23441;50.856;6.076;2022-11-11T03:24:00;3.55;;;1.58;;
37593;SDS011;23441;50.856;6.076;2022-11-11T03:26:27;1.85;;;1.63;;
37593;SDS011;23441;50.856;6.076;2022-11-11T03:28:53;5.40;;;1.33;;
37593;SDS011;23441;50.856;6.076;2022-11-11T03:31:19;4.68;;;1.67;;
37593;SDS011;23441;50.856;6.076;2022-11-11T03:33:45;5.85;;;1.80;;
37593;SDS011;23441;50.856;6.076;2022-11-11T03:36:11;5.93;;;1.95;;
37593;SDS011;23441;50.856;6.076;2022-11-11T03:38:37;5.93;;;2.00;;
37593;SDS011;23441;50.856;6.076;2022-11-11T03:41:03;4.45;;;1.98;;
37593;SDS011;23441;50.856;6.076;2022-11-11T03:43:30;2.90;;;1.50;;
37593;SDS011;23441;50.856;6.076;2022-11-11T03:45:58;4.82;;;1.98;;
37593;SDS011;23441;50.856;6.076;2022-11-11T03:48:26;5.20;;;1.42;;
37593;SDS011;23441;50.856;6.076;2022-11-11T03:50:53;4.70;;;1.63;;
37593;SDS011;23441;50.856;6.076;2022-11-11T03:53:19;3.40;;;1.58;;
37593;SDS011;23441;50.856;6.076;2022-11-11T03:55:46;4.10;;;1.52;;
37593;SDS011;23441;50.856;6.076;2022-11-11T03:58:12;7.25;;;1.65;;
37593;SDS011;23441;50.856;6.076;2022-11-11T04:00:38;4.72;;;1.50;;
37593;SDS011;23441;50.856;6.076;2022-11-11T04:03:05;4.78;;;1.48;;
37593;SDS011;23441;50.856;6.076;2022-11-11T04:05:54;4.22;;;1.30;;
37593;SDS011;23441;50.856;6.076;2022-11-11T04:08:46;5.45;;;1.50;;
37593;SDS011;23441;50.856;6.076;2022-11-11T04:11:32;3.15;;;1.33;;
37593;SDS011;23441;50.856;6.076;2022-11-11T04:14:04;3.42;;;1.60;;
37593;SDS011;23441;50.856;6.076;2022-11-11T04:16:51;4.32;;;1.63;;
37593;SDS011;23441;50.856;6.076;2022-11-11T04:19:18;3.42;;;1.52;;
37593;SDS011;23441;50.856;6.076;2022-11-11T04:22:02;3.67;;;1.58;;
37593;SDS011;23441;50.856;6.076;2022-11-11T04:24:28;7.10;;;1.90;;
37593;SDS011;23441;50.856;6.076;2022-11-11T04:27:14;2.38;;;1.25;;
37593;SDS011;23441;50.856;6.076;2022-11-11T04:29:42;2.97;;;1.40;;
37593;SDS011;23441;50.856;6.076;2022-11-11T04:32:08;2.92;;;1.55;;
37593;SDS011;23441;50.856;6.076;2022-11-11T04:34:58;2.95;;;1.30;;
37593;SDS011;23441;50.856;6.076;2022-11-11T04:37:26;3.78;;;1.30;;
37593;SDS011;23441;50.856;6.076;2022-11-11T04:39:55;1.77;;;1.10;;
37593;SDS011;23441;50.856;6.076;2022-11-11T04:42:39;2.40;;;1.50;;
37593;SDS011;23441;50.856;6.076;2022-11-11T04:45:05;3.20;;;1.40;;
37593;SDS011;23441;50.856;6.076;2022-11-11T04:50:47;2.30;;;1.25;;
37593;SDS011;23441;50.856;6.076;2022-11-11T04:53:13;2.50;;;1.20;;
37593;SDS011;23441;50.856;6.076;2022-11-11T04:55:40;3.55;;;1.30;;
37593;SDS011;23441;50.856;6.076;2022-11-11T04:58:26;2.80;;;1.30;;
37593;SDS011;23441;50.856;6.076;2022-11-11T05:00:56;4.18;;;1.20;;
37593;SDS011;23441;50.856;6.076;2022-11-11T05:03:22;4.13;;;1.50;;
37593;SDS011;23441;50.856;6.076;2022-11-11T05:08:34;1.98;;;1.30;;
37593;SDS011;23441;50.856;6.076;2022-11-11T05:11:20;3.10;;;1.30;;
37593;SDS011;23441;50.856;6.076;2022-11-11T05:13:49;2.85;;;1.33;;
37593;SDS011;23441;50.856;6.076;2022-11-11T05:16:36;3.03;;;1.40;;
37593;SDS011;23441;50.856;6.076;2022-11-11T05:19:23;3.17;;;1.40;;
37593;SDS011;23441;50.856;6.076;2022-11-11T05:22:11;3.25;;;1.63;;
37593;SDS011;23441;50.856;6.076;2022-11-11T05:24:42;1.58;;;1.30;;
37593;SDS011;23441;50.856;6.076;2022-11-11T05:27:27;3.55;;;1.70;;
37593;SDS011;23441;50.856;6.076;2022-11-11T05:29:53;3.17;;;1.73;;
37593;SDS011;23441;50.856;6.076;2022-11-11T05:32:19;3.17;;;1.45;;
37593;SDS011;23441;50.856;6.076;2022-11-11T05:34:47;5.80;;;2.03;;
37593;SDS011;23441;50.856;6.076;2022-11-11T05:37:13;1.83;;;1.60;;
37593;SDS011;23441;50.856;6.076;2022-11-11T05:39:39;3.03;;;1.80;;
37593;SDS011;23441;50.856;6.076;2022-11-11T05:42:05;2.78;;;1.77;;
37593;SDS011;23441;50.856;6.076;2022-11-11T05:44:32;3.67;;;1.45;;
37593;SDS011;23441;50.856;6.076;2022-11-11T05:46:58;2.92;;;1.70;;
37593;SDS011;23441;50.856;6.076;2022-11-11T05:49:24;1.52;;;1.38;;
37593;SDS011;23441;50.856;6.076;2022-11-11T05:51:50;3.72;;;1.40;;
37593;SDS011;23441;50.856;6.076;2022-11-11T05:54:17;3.15;;;1.50;;
37593;SDS011;23441;50.856;6.076;2022-11-11T05:56:43;1.63;;;1.35;;
37593;SDS011;23441;50.856;6.076;2022-11-11T05:59:09;1.45;;;1.23;;
37593;SDS011;23441;50.856;6.076;2022-11-11T06:01:35;3.08;;;1.52;;
37593;SDS011;23441;50.856;6.076;2022-11-11T06:04:02;2.83;;;1.33;;
37593;SDS011;23441;50.856;6.076;2022-11-11T06:06:28;1.50;;;1.33;;
37593;SDS011;23441;50.856;6.076;2022-11-11T06:08:55;4.05;;;1.40;;
37593;SDS011;23441;50.856;6.076;2022-11-11T06:11:21;3.00;;;1.27;;
37593;SDS011;23441;50.856;6.076;2022-11-11T06:13:47;1.30;;;1.20;;
37593;SDS011;23441;50.856;6.076;2022-11-11T06:16:14;2.67;;;1.20;;
37593;SDS011;23441;50.856;6.076;2022-11-11T06:18:40;1.40;;;1.13;;
37593;SDS011;23441;50.856;6.076;2022-11-11T06:21:07;3.00;;;1.63;;
37593;SDS011;23441;50.856;6.076;2022-11-11T06:23:33;1.92;;;1.55;;
37593;SDS011;23441;50.856;6.076;2022-11-11T06:25:59;2.13;;;1.30;;
37593;SDS011;23441;50.856;6.076;2022-11-11T06:28:57;1.30;;;1.20;;
37593;SDS011;23441;50.856;6.076;2022-11-11T06:31:23;1.63;;;1.10;;
37593;SDS011;23441;50.856;6.076;2022-11-11T06:33:50;4.05;;;1.58;;
37593;SDS011;23441;50.856;6.076;2022-11-11T06:36:17;2.53;;;1.30;;
37593;SDS011;23441;50.856;6.076;2022-11-11T06:38:44;2.08;;;1.50;;
37593;SDS011;23441;50.856;6.076;2022-11-11T06:41:11;2.78;;;1.40;;
37593;SDS011;23441;50.856;6.076;2022-11-11T06:43:38;3.13;;;1.35;;
37593;SDS011;23441;50.856;6.076;2022-11-11T06:46:04;2.35;;;1.45;;
37593;SDS011;23441;50.856;6.076;2022-11-11T06:48:31;2.15;;;1.30;;
37593;SDS011;23441;50.856;6.076;2022-11-11T06:51:04;3.70;;;1.48;;
37593;SDS011;23441;50.856;6.076;2022-11-11T06:53:31;2.55;;;1.38;;
37593;SDS011;23441;50.856;6.076;2022-11-11T06:55:57;1.55;;;1.45;;
37593;SDS011;23441;50.856;6.076;2022-11-11T06:58:23;2.97;;;1.38;;
37593;SDS011;23441;50.856;6.076;2022-11-11T07:00:49;4.05;;;1.42;;
37593;SDS011;23441;50.856;6.076;2022-11-11T07:03:16;2.58;;;1.42;;
37593;SDS011;23441;50.856;6.076;2022-11-11T07:05:43;3.00;;;1.38;;
37593;SDS011;23441;50.856;6.076;2022-11-11T07:08:10;2.60;;;1.40;;
37593;SDS011;23441;50.856;6.076;2022-11-11T07:10:45;4.32;;;1.65;;
37593;SDS011;23441;50.856;6.076;2022-11-11T07:13:12;2.90;;;1.88;;
37593;SDS011;23441;50.856;6.076;2022-11-11T07:15:39;3.67;;;2.17;;
37593;SDS011;23441;50.856;6.076;2022-11-11T07:18:06;4.25;;;2.13;;
37593;SDS011;23441;50.856;6.076;2022-11-11T07:20:32;9.15;;;2.55;;
37593;SDS011;23441;50.856;6.076;2022-11-11T07:22:58;5.78;;;2.50;;
37593;SDS011;23441;50.856;6.076;2022-11-11T07:25:24;6.38;;;2.63;;
37593;SDS011;23441;50.856;6.076;2022-11-11T07:27:50;6.03;;;2.65;;
37593;SDS011;23441;50.856;6.076;2022-11-11T07:30:15;5.45;;;2.70;;
37593;SDS011;23441;50.856;6.076;2022-11-11T07:32:45;5.30;;;2.50;;
37593;SDS011;23441;50.856;6.076;2022-11-11T07:35:12;5.28;;;3.00;;
37593;SDS011;23441;50.856;6.076;2022-11-11T07:37:39;6.68;;;3.28;;
37593;SDS011;23441;50.856;6.076;2022-11-11T07:40:06;6.78;;;2.67;;
37593;SDS011;23441;50.856;6.076;2022-11-11T07:42:39;5.18;;;2.08;;
37593;SDS011;23441;50.856;6.076;2022-11-11T07:45:07;2.83;;;1.90;;
37593;SDS011;23441;50.856;6.076;2022-11-11T07:47:34;3.38;;;2.17;;
37593;SDS011;23441;50.856;6.076;2022-11-11T07:50:03;5.32;;;1.60;;
37593;SDS011;23441;50.856;6.076;2022-11-11T07:52:30;3.92;;;1.60;;
37593;SDS011;23441;50.856;6.076;2022-11-11T07:54:56;2.42;;;1.25;;
37593;SDS011;23441;50.856;6.076;2022-11-11T07:57:22;3.80;;;1.42;;
37593;SDS011;23441;50.856;6.076;2022-11-11T07:59:48;1.83;;;1.20;;
37593;SDS011;23441;50.856;6.076;2022-11-11T08:02:14;2.33;;;1.20;;
37593;SDS011;23441;50.856;6.076;2022-11-11T08:04:40;5.75;;;1.30;;
37593;SDS011;23441;50.856;6.076;2022-11-11T08:07:06;2.83;;;1.52;;
37593;SDS011;23441;50.856;6.076;2022-11-11T08:09:32;3.30;;;1.45;;
37593;SDS011;23441;50.856;6.076;2022-11-11T08:11:58;2.95;;;1.70;;
37593;SDS011;23441;50.856;6.076;2022-11-11T08:14:43;3.78;;;1.73;;
37593;SDS011;23441;50.856;6.076;2022-11-11T08:17:09;2.40;;;1.40;;
37593;SDS011;23441;50.856;6.076;2022-11-11T08:19:35;2.85;;;1.40;;
37593;SDS011;23441;50.856;6.076;2022-11-11T08:22:00;3.67;;;1.40;;
37593;SDS011;23441;50.856;6.076;2022-11-11T08:24:27;1.92;;;1.33;;
37593;SDS011;23441;50.856;6.076;2022-11-11T08:26:52;2.28;;;1.20;;
37593;SDS011;23441;50.856;6.076;2022-11-11T08:29:18;2.97;;;1.40;;
37593;SDS011;23441;50.856;6.076;2022-11-11T08:31:45;2.00;;;1.75;;
37593;SDS011;23441;50.856;6.076;2022-11-11T08:34:11;2.28;;;1.60;;
37593;SDS011;23441;50.856;6.076;2022-11-11T08:36:38;4.20;;;1.40;;
37593;SDS011;23441;50.856;6.076;2022-11-11T08:39:04;3.88;;;1.60;;
37593;SDS011;23441;50.856;6.076;2022-11-11T08:41:30;3.72;;;1.60;;
37593;SDS011;23441;50.856;6.076;2022-11-11T08:43:56;2.47;;;1.48;;
37593;SDS011;23441;50.856;6.076;2022-11-11T08:46:24;1.45;;;1.35;;
37593;SDS011;23441;50.856;6.076;2022-11-11T08:48:49;3.70;;;1.30;;
37593;SDS011;23441;50.856;6.076;2022-11-11T08:51:15;5.22;;;1.50;;
37593;SDS011;23441;50.856;6.076;2022-11-11T08:53:41;4.05;;;1.67;;
37593;SDS011;23441;50.856;6.076;2022-11-11T08:56:07;4.70;;;1.50;;
37593;SDS011;23441;50.856;6.076;2022-11-11T08:58:34;2.22;;;1.50;;
37593;SDS011;23441;50.856;6.076;2022-11-11T09:01:00;3.25;;;1.55;;
37593;SDS011;23441;50.856;6.076;2022-11-11T09:03:28;3.55;;;1.67;;
37593;SDS011;23441;50.856;6.076;2022-11-11T09:05:54;2.10;;;1.40;;
37593;SDS011;23441;50.856;6.076;2022-11-11T09:08:20;5.90;;;1.63;;
37593;SDS011;23441;50.856;6.076;2022-11-11T09:10:46;2.67;;;1.70;;
37593;SDS011;23441;50.856;6.076;2022-11-11T09:13:12;2.85;;;1.83;;
37593;SDS011;23441;50.856;6.076;2022-11-11T09:15:38;2.15;;;1.48;;
37593;SDS011;23441;50.856;6.076;2022-11-11T09:18:04;2.92;;;1.40;;
37593;SDS011;23441;50.856;6.076;2022-11-11T09:20:30;4.20;;;1.70;;
37593;SDS011;23441;50.856;6.076;2022-11-11T09:22:57;3.22;;;1.80;;
37593;SDS011;23441;50.856;6.076;2022-11-11T09:25:23;2.35;;;1.70;;
37593;SDS011;23441;50.856;6.076;2022-11-11T09:27:52;4.55;;;1.48;;
37593;SDS011;23441;50.856;6.076;2022-11-11T09:30:22;3.67;;;1.65;;
37593;SDS011;23441;50.856;6.076;2022-11-11T09:32:49;3.38;;;1.70;;
37593;SDS011;23441;50.856;6.076;2022-11-11T09:35:15;4.00;;;1.90;;
37593;SDS011;23441;50.856;6.076;2022-11-11T09:37:41;2.72;;;2.05;;
37593;SDS011;23441;50.856;6.076;2022-11-11T09:40:09;3.58;;;1.65;;
37593;SDS011;23441;50.856;6.076;2022-11-11T09:42:43;3.03;;;1.50;;
37593;SDS011;23441;50.856;6.076;2022-11-11T09:45:24;1.88;;;1.13;;
37593;SDS011;23441;50.856;6.076;2022-11-11T09:50:40;4.80;;;1.25;;
37593;SDS011;23441;50.856;6.076;2022-11-11T09:55:47;3.92;;;1.23;;
37593;SDS011;23441;50.856;6.076;2022-11-11T09:58:25;4.28;;;1.35;;
37593;SDS011;23441;50.856;6.076;2022-11-11T10:01:04;3.38;;;1.20;;
37593;SDS011;23441;50.856;6.076;2022-11-11T10:03:37;1.15;;;0.90;;
37593;SDS011;23441;50.856;6.076;2022-11-11T10:06:18;3.40;;;1.30;;
37593;SDS011;23441;50.856;6.076;2022-11-11T10:08:50;4.60;;;1.25;;
37593;SDS011;23441;50.856;6.076;2022-11-11T10:11:26;1.20;;;1.00;;
37593;SDS011;23441;50.856;6.076;2022-11-11T10:13:59;3.05;;;1.40;;
37593;SDS011;23441;50.856;6.076;2022-11-11T10:19:01;2.70;;;1.17;;
37593;SDS011;23441;50.856;6.076;2022-11-11T10:21:43;1.48;;;1.00;;
37593;SDS011;23441;50.856;6.076;2022-11-11T10:24:18;4.25;;;1.10;;
37593;SDS011;23441;50.856;6.076;2022-11-11T10:26:52;2.15;;;1.20;;
37593;SDS011;23441;50.856;6.076;2022-11-11T10:29:20;2.72;;;1.20;;
37593;SDS011;23441;50.856;6.076;2022-11-11T10:31:55;2.25;;;1.38;;
37593;SDS011;23441;50.856;6.076;2022-11-11T10:34:33;3.90;;;1.10;;
37593;SDS011;23441;50.856;6.076;2022-11-11T10:36:59;1.90;;;1.00;;
37593;SDS011;23441;50.856;6.076;2022-11-11T10:39:30;3.60;;;1.33;;
37593;SDS011;23441;50.856;6.076;2022-11-11T10:42:12;2.83;;;1.15;;
37593;SDS011;23441;50.856;6.076;2022-11-11T10:44:41;2.28;;;1.08;;
37593;SDS011;23441;50.856;6.076;2022-11-11T10:49:39;2.83;;;1.40;;
37593;SDS011;23441;50.856;6.076;2022-11-11T10:52:15;3.33;;;1.50;;
37593;SDS011;23441;50.856;6.076;2022-11-11T10:54:54;3.95;;;1.50;;
37593;SDS011;23441;50.856;6.076;2022-11-11T11:00:10;4.68;;;1.40;;
37593;SDS011;23441;50.856;6.076;2022-11-11T11:02:47;2.65;;;1.20;;
37593;SDS011;23441;50.856;6.076;2022-11-11T11:05:40;3.67;;;1.50;;
37593;SDS011;23441;50.856;6.076;2022-11-11T11:08:20;1.73;;;1.10;;
37593;SDS011;23441;50.856;6.076;2022-11-11T11:11:06;3.33;;;1.65;;
37593;SDS011;23441;50.856;6.076;2022-11-11T11:16:21;2.75;;;1.50;;
37593;SDS011;23441;50.856;6.076;2022-11-11T11:21:52;3.42;;;1.40;;
37593;SDS011;23441;50.856;6.076;2022-11-11T11:24:24;3.58;;;1.55;;
37593;SDS011;23441;50.856;6.076;2022-11-11T11:26:53;1.98;;;1.30;;
37593;SDS011;23441;50.856;6.076;2022-11-11T11:29:24;2.95;;;1.60;;
37593;SDS011;23441;50.856;6.076;2022-11-11T11:31:51;4.10;;;1.60;;
37593;SDS011;23441;50.856;6.076;2022-11-11T11:34:17;3.65;;;1.52;;
37593;SDS011;23441;50.856;6.076;2022-11-11T11:36:43;2.53;;;1.58;;
37593;SDS011;23441;50.856;6.076;2022-11-11T11:39:35;5.20;;;1.73;;
37593;SDS011;23441;50.856;6.076;2022-11-11T11:42:03;4.40;;;1.80;;
37593;SDS011;23441;50.856;6.076;2022-11-11T11:49:57;4.30;;;2.17;;
37593;SDS011;23441;50.856;6.076;2022-11-11T11:52:54;4.07;;;2.30;;
37593;SDS011;23441;50.856;6.076;2022-11-11T11:56:40;4.25;;;2.10;;
37593;SDS011;23441;50.856;6.076;2022-11-11T12:04:18;2.20;;;1.70;;
37593;SDS011;23441;50.856;6.076;2022-11-11T12:10:28;2.95;;;1.42;;
37593;SDS011;23441;50.856;6.076;2022-11-11T12:21:28;4.75;;;1.00;;
37593;SDS011;23441;50.856;6.076;2022-11-11T12:26:56;2.42;;;1.35;;
37593;SDS011;23441;50.856;6.076;2022-11-11T12:29:52;4.55;;;1.30;;
37593;SDS011;23441;50.856;6.076;2022-11-11T12:35:56;5.82;;;1.30;;
37593;SDS011;23441;50.856;6.076;2022-11-11T12:44:04;4.47;;;1.30;;
37593;SDS011;23441;50.856;6.076;2022-11-11T12:46:41;1.90;;;1.45;;
37593;SDS011;23441;50.856;6.076;2022-11-11T13:00:28;5.15;;;1.20;;
37593;SDS011;23441;50.856;6.076;2022-11-11T13:05:26;5.38;;;1.30;;
37593;SDS011;23441;50.856;6.076;2022-11-11T13:16:11;11.05;;;1.55;;
37593;SDS011;23441;50.856;6.076;2022-11-11T13:18:41;2.60;;;1.30;;
37593;SDS011;23441;50.856;6.076;2022-11-11T13:21:29;3.90;;;1.60;;
37593;SDS011;23441;50.856;6.076;2022-11-11T13:24:07;4.32;;;1.33;;
37593;SDS011;23441;50.856;6.076;2022-11-11T13:26:38;3.80;;;1.35;;
37593;SDS011;23441;50.856;6.076;2022-11-11T13:31:58;2.53;;;1.60;;
37593;SDS011;23441;50.856;6.076;2022-11-11T13:34:28;3.88;;;1.85;;
37593;SDS011;23441;50.856;6.076;2022-11-11T13:36:59;3.10;;;1.42;;
37593;SDS011;23441;50.856;6.076;2022-11-11T13:39:28;3.30;;;1.33;;
37593;SDS011;23441;50.856;6.076;2022-11-11T13:41:58;3.20;;;1.70;;
37593;SDS011;23441;50.856;6.076;2022-11-11T13:44:35;2.58;;;1.40;;
37593;SDS011;23441;50.856;6.076;2022-11-11T13:47:17;1.67;;;1.30;;
37593;SDS011;23441;50.856;6.076;2022-11-11T13:50:22;8.57;;;4.63;;
37593;SDS011;23441;50.856;6.076;2022-11-11T13:52:42;8.35;;;4.72;;
37593;SDS011;23441;50.856;6.076;2022-11-11T13:55:37;5.97;;;3.30;;
37593;SDS011;23441;50.856;6.076;2022-11-11T13:58:06;4.82;;;2.83;;
37593;SDS011;23441;50.856;6.076;2022-11-11T14:00:43;4.18;;;2.63;;
37593;SDS011;23441;50.856;6.076;2022-11-11T14:05:42;7.65;;;2.03;;
37593;SDS011;23441;50.856;6.076;2022-11-11T14:08:09;4.32;;;1.67;;
37593;SDS011;23441;50.856;6.076;2022-11-11T14:10:58;2.42;;;1.48;;
37593;SDS011;23441;50.856;6.076;2022-11-11T14:15:59;3.95;;;1.63;;
37593;SDS011;23441;50.856;6.076;2022-11-11T14:20:51;4.25;;;2.38;;
37593;SDS011;23441;50.856;6.076;2022-11-11T14:28:31;4.57;;;2.75;;
37593;SDS011;23441;50.856;6.076;2022-11-11T14:36:31;4.13;;;2.45;;
37593;SDS011;23441;50.856;6.076;2022-11-11T14:45:03;3.60;;;2.63;;
37593;SDS011;23441;50.856;6.076;2022-11-11T14:47:49;4.28;;;1.98;;
37593;SDS011;23441;50.856;6.076;2022-11-11T14:53:16;3.50;;;2.30;;
37593;SDS011;23441;50.856;6.076;2022-11-11T14:55:51;6.05;;;2.38;;
37593;SDS011;23441;50.856;6.076;2022-11-11T14:58:25;7.68;;;4.18;;
37593;SDS011;23441;50.856;6.076;2022-11-11T15:01:12;9.98;;;5.72;;
37593;SDS011;23441;50.856;6.076;2022-11-11T15:03:49;6.00;;;3.47;;
37593;SDS011;23441;50.856;6.076;2022-11-11T15:06:19;7.03;;;4.22;;
37593;SDS011;23441;50.856;6.076;2022-11-11T15:14:12;4.25;;;2.20;;
37593;SDS011;23441;50.856;6.076;2022-11-11T15:17:20;6.38;;;2.78;;
37593;SDS011;23441;50.856;6.076;2022-11-11T15:20:20;6.07;;;2.50;;
37593;SDS011;23441;50.856;6.076;2022-11-11T15:25:53;8.25;;;3.08;;
37593;SDS011;23441;50.856;6.076;2022-11-11T15:28:42;7.53;;;3.33;;
37593;SDS011;23441;50.856;6.076;2022-11-11T15:31:35;8.75;;;3.80;;
37593;SDS011;23441;50.856;6.076;2022-11-11T15:36:53;9.45;;;3.30;;
37593;SDS011;23441;50.856;6.076;2022-11-11T15:39:37;9.82;;;3.55;;
37593;SDS011;23441;50.856;6.076;2022-11-11T15:42:03;9.75;;;3.47;;
37593;SDS011;23441;50.856;6.076;2022-11-11T15:44:30;6.15;;;3.35;;
37593;SDS011;23441;50.856;6.076;2022-11-11T15:46:59;14.52;;;4.05;;
37593;SDS011;23441;50.856;6.076;2022-11-11T15:52:23;11.35;;;3.55;;
37593;SDS011;23441;50.856;6.076;2022-11-11T15:54:49;10.65;;;4.00;;
37593;SDS011;23441;50.856;6.076;2022-11-11T15:57:32;10.80;;;3.78;;
37593;SDS011;23441;50.856;6.076;2022-11-11T15:59:59;10.60;;;4.93;;
37593;SDS011;23441;50.856;6.076;2022-11-11T16:02:27;10.57;;;4.30;;
37593;SDS011;23441;50.856;6.076;2022-11-11T16:05:06;9.07;;;3.40;;
37593;SDS011;23441;50.856;6.076;2022-11-11T16:07:42;9.63;;;3.92;;
37593;SDS011;23441;50.856;6.076;2022-11-11T16:10:43;12.68;;;4.32;;
37593;SDS011;23441;50.856;6.076;2022-11-11T16:13:05;7.90;;;3.78;;
37593;SDS011;23441;50.856;6.076;2022-11-11T16:18:26;7.82;;;3.70;;
37593;SDS011;23441;50.856;6.076;2022-11-11T16:21:03;10.82;;;4.15;;
37593;SDS011;23441;50.856;6.076;2022-11-11T16:23:31;11.10;;;4.63;;
37593;SDS011;23441;50.856;6.076;2022-11-11T16:25:58;13.05;;;5.70;;
37593;SDS011;23441;50.856;6.076;2022-11-11T16:28:29;17.05;;;6.53;;
37593;SDS011;23441;50.856;6.076;2022-11-11T16:33:56;13.52;;;6.38;;
37593;SDS011;23441;50.856;6.076;2022-11-11T16:36:22;14.00;;;7.15;;
37593;SDS011;23441;50.856;6.076;2022-11-11T16:38:47;15.10;;;6.55;;
37593;SDS011;23441;50.856;6.076;2022-11-11T16:41:31;11.90;;;6.30;;
37593;SDS011;23441;50.856;6.076;2022-11-11T16:43:57;15.48;;;6.80;;
37593;SDS011;23441;50.856;6.076;2022-11-11T16:49:43;11.50;;;6.05;;
37593;SDS011;23441;50.856;6.076;2022-11-11T16:51:50;16.50;;;7.32;;
37593;SDS011;23441;50.856;6.076;2022-11-11T16:54:19;12.10;;;6.35;;
37593;SDS011;23441;50.856;6.076;2022-11-11T16:56:53;13.18;;;6.63;;
37593;SDS011;23441;50.856;6.076;2022-11-11T17:02:15;19.02;;;7.55;;
37593;SDS011;23441;50.856;6.076;2022-11-11T17:04:46;15.88;;;6.65;;
37593;SDS011;23441;50.856;6.076;2022-11-11T17:07:30;16.42;;;6.60;;
37593;SDS011;23441;50.856;6.076;2022-11-11T17:12:40;18.38;;;7.75;;
37593;SDS011;23441;50.856;6.076;2022-11-11T17:15:07;18.55;;;8.10;;
37593;SDS011;23441;50.856;6.076;2022-11-11T17:17:35;15.73;;;6.97;;
37593;SDS011;23441;50.856;6.076;2022-11-11T17:20:07;14.13;;;6.25;;
37593;SDS011;23441;50.856;6.076;2022-11-11T17:22:35;13.90;;;7.28;;
37593;SDS011;23441;50.856;6.076;2022-11-11T17:25:01;12.20;;;6.20;;
37593;SDS011;23441;50.856;6.076;2022-11-11T17:27:28;13.70;;;7.35;;
37593;SDS011;23441;50.856;6.076;2022-11-11T17:29:55;14.73;;;8.10;;
37593;SDS011;23441;50.856;6.076;2022-11-11T17:32:21;15.40;;;7.03;;